createdAt,value
2017-07-10T00:00:04.021Z,99.99
2017-07-10T00:01:04.397Z,99.99
2017-07-10T00:02:04.305Z,99.99
2017-07-10T00:03:04.006Z,99.99
2017-07-10T00:04:04.035Z,99.99
2017-07-10T00:05:03.999Z,99.99
2017-07-10T00:06:04.185Z,99.99
2017-07-10T00:07:04.387Z,99.99
2017-07-10T00:08:04.369Z,99.99
2017-07-10T00:09:03.988Z,99.99
2017-07-10T00:10:04.342Z,99.99
2017-07-10T00:11:04.142Z,99.99
2017-07-10T00:12:04.357Z,99.99
2017-07-10T00:13:04.257Z,99.99
2017-07-10T00:14:04.024Z,99.99
2017-07-10T00:15:04.380Z,99.99
2017-07-10T00:16:04.135Z,99.99
2017-07-10T00:17:04.580Z,99.99
2017-07-10T00:18:04.070Z,99.99
2017-07-10T00:19:04.226Z,99.99
2017-07-10T00:20:04.378Z,99.99
2017-07-10T00:21:04.366Z,99.99
2017-07-10T00:22:04.150Z,99.99
2017-07-10T00:23:04.075Z,99.99
2017-07-10T00:24:03.995Z,99.99
2017-07-10T00:25:04.002Z,99.99
2017-07-10T00:26:04.457Z,99.99
2017-07-10T00:27:04.419Z,99.99
2017-07-10T00:28:04.044Z,99.99
2017-07-10T00:29:04.048Z,99.99
2017-07-10T00:30:04.335Z,99.99
2017-07-10T00:31:04.347Z,99.99
2017-07-10T00:32:04.392Z,99.99
2017-07-10T00:33:04.398Z,99.99
2017-07-10T00:34:04.121Z,99.99
2017-07-10T00:35:03.982Z,99.99
2017-07-10T00:36:04.811Z,99.99
2017-07-10T00:37:04.026Z,99.99
2017-07-10T00:38:04.408Z,99.99
2017-07-10T00:39:03.990Z,99.99
2017-07-10T00:40:04.010Z,99.99
2017-07-10T00:41:04.047Z,99.99
2017-07-10T00:42:04.285Z,99.99
2017-07-10T00:43:04.808Z,99.99
2017-07-10T00:44:04.011Z,99.99
2017-07-10T00:45:04.038Z,99.99
2017-07-10T00:46:03.989Z,99.99
2017-07-10T00:47:03.982Z,99.99
2017-07-10T00:48:04.045Z,99.99
2017-07-10T00:49:04.389Z,99.99
2017-07-10T00:50:04.051Z,99.99
2017-07-10T00:51:04.281Z,99.99
2017-07-10T00:52:03.990Z,99.99
2017-07-10T00:53:03.968Z,99.99
2017-07-10T00:54:03.999Z,99.99
2017-07-10T00:55:04.293Z,99.99
2017-07-10T00:56:03.956Z,99.99
2017-07-10T00:57:04.817Z,99.99
2017-07-10T00:58:04.291Z,99.99
2017-07-10T00:59:03.959Z,99.99
2017-07-10T01:00:03.993Z,99.99
2017-07-10T01:01:03.987Z,99.99
2017-07-10T01:02:04.343Z,99.99
2017-07-10T01:03:04.293Z,99.99
2017-07-10T01:04:03.989Z,99.99
2017-07-10T01:05:03.961Z,99.99
2017-07-10T01:06:03.970Z,99.99
2017-07-10T01:07:04.279Z,99.99
2017-07-10T01:08:03.942Z,99.99
2017-07-10T01:09:03.961Z,99.99
2017-07-10T01:10:04.006Z,99.99
2017-07-10T01:11:04.280Z,99.99
2017-07-10T01:12:04.262Z,99.99
2017-07-10T01:13:03.940Z,99.99
2017-07-10T01:14:04.561Z,99.99
2017-07-10T01:15:04.747Z,99.99
2017-07-10T01:16:04.291Z,99.99
2017-07-10T01:17:04.256Z,99.99
2017-07-10T01:18:04.019Z,99.99
2017-07-10T01:19:03.961Z,99.99
2017-07-10T01:20:04.329Z,99.99
2017-07-10T01:21:03.962Z,99.99
2017-07-10T01:22:03.931Z,99.99
2017-07-10T01:23:04.325Z,99.99
2017-07-10T01:24:04.633Z,99.99
2017-07-10T01:25:04.761Z,99.99
2017-07-10T01:26:03.948Z,99.99
2017-07-10T01:27:03.927Z,99.99
2017-07-10T01:28:03.998Z,99.99
2017-07-10T01:29:03.954Z,99.99
2017-07-10T01:30:04.576Z,99.99
2017-07-10T01:31:03.911Z,99.99
2017-07-10T01:32:04.386Z,99.99
2017-07-10T01:33:04.314Z,99.99
2017-07-10T01:34:04.789Z,99.99
2017-07-10T01:35:03.905Z,99.99
2017-07-10T01:36:03.942Z,99.99
2017-07-10T01:37:03.904Z,99.99
2017-07-10T01:38:04.720Z,99.99
2017-07-10T01:39:04.145Z,99.99
2017-07-10T01:40:04.281Z,99.99
2017-07-10T01:41:04.339Z,99.99
2017-07-10T01:42:04.037Z,99.99
2017-07-10T01:43:04.179Z,99.99
2017-07-10T01:44:04.307Z,99.99
2017-07-10T01:45:04.034Z,99.99
2017-07-10T01:46:04.780Z,99.99
2017-07-10T01:47:04.243Z,99.99
2017-07-10T01:48:03.916Z,99.99
2017-07-10T01:49:03.948Z,99.99
2017-07-10T01:50:03.931Z,99.99
2017-07-10T01:51:04.712Z,99.99
2017-07-10T01:52:04.061Z,99.99
2017-07-10T01:53:03.906Z,99.99
2017-07-10T01:54:04.243Z,99.99
2017-07-10T01:55:04.144Z,99.99
2017-07-10T01:56:03.961Z,99.99
2017-07-10T01:57:03.909Z,99.99
2017-07-10T01:58:04.310Z,99.99
2017-07-10T01:59:03.933Z,99.99
2017-07-10T02:00:04.310Z,99.99
2017-07-10T02:01:03.900Z,99.99
2017-07-10T02:02:03.924Z,99.99
2017-07-10T02:03:03.928Z,99.99
2017-07-10T02:04:03.976Z,99.99
2017-07-10T02:05:04.134Z,99.99
2017-07-10T02:06:04.251Z,99.99
2017-07-10T02:07:03.935Z,99.99
2017-07-10T02:08:04.291Z,99.99
2017-07-10T02:09:03.916Z,99.99
2017-07-10T02:10:04.247Z,99.99
2017-07-10T02:11:03.973Z,99.99
2017-07-10T02:12:03.997Z,99.99
2017-07-10T02:13:03.959Z,99.99
2017-07-10T02:14:04.213Z,99.99
2017-07-10T02:15:03.900Z,99.99
2017-07-10T02:16:04.301Z,99.99
2017-07-10T02:17:03.897Z,99.99
2017-07-10T02:18:03.939Z,99.99
2017-07-10T02:19:04.334Z,99.99
2017-07-10T02:20:04.190Z,99.99
2017-07-10T02:21:04.246Z,99.99
2017-07-10T02:22:04.260Z,99.99
2017-07-10T02:23:04.275Z,99.99
2017-07-10T02:24:04.727Z,99.99
2017-07-10T02:25:04.331Z,99.99
2017-07-10T02:26:03.863Z,99.99
2017-07-10T02:27:03.892Z,99.99
2017-07-10T02:28:03.977Z,99.99
2017-07-10T02:29:03.895Z,99.99
2017-07-10T02:30:04.354Z,99.99
2017-07-10T02:31:03.856Z,99.99
2017-07-10T02:32:03.931Z,99.99
2017-07-10T02:33:03.851Z,99.99
2017-07-10T02:34:04.194Z,99.99
2017-07-10T02:35:04.228Z,99.99
2017-07-10T02:36:03.870Z,99.99
2017-07-10T02:37:03.937Z,99.99
2017-07-10T02:38:03.880Z,99.99
2017-07-10T02:39:03.889Z,99.99
2017-07-10T02:40:03.863Z,99.99
2017-07-10T02:41:04.202Z,99.99
2017-07-10T02:42:03.915Z,99.99
2017-07-10T02:43:04.191Z,99.99
2017-07-10T02:44:03.949Z,99.99
2017-07-10T02:45:04.268Z,99.99
2017-07-10T02:46:03.845Z,99.99
2017-07-10T02:47:04.241Z,99.99
2017-07-10T02:48:03.898Z,99.99
2017-07-10T02:49:03.866Z,99.99
2017-07-10T02:50:03.899Z,99.99
2017-07-10T02:51:04.190Z,99.99
2017-07-10T02:52:04.191Z,99.99
2017-07-10T02:53:04.270Z,99.99
2017-07-10T02:54:03.830Z,99.99
2017-07-10T02:55:03.865Z,99.99
2017-07-10T02:56:04.097Z,99.99
2017-07-10T02:57:04.188Z,99.99
2017-07-10T02:58:03.868Z,99.99
2017-07-10T02:59:03.886Z,99.99
2017-07-10T03:00:04.170Z,99.99
2017-07-10T03:01:03.843Z,99.99
2017-07-10T03:02:03.879Z,99.99
2017-07-10T03:03:03.825Z,99.99
2017-07-10T03:04:03.849Z,99.99
2017-07-10T03:05:03.836Z,99.99
2017-07-10T03:06:03.828Z,99.99
2017-07-10T03:07:03.876Z,99.99
2017-07-10T03:08:03.827Z,99.99
2017-07-10T03:09:04.199Z,99.99
2017-07-10T03:10:04.281Z,99.99
2017-07-10T03:11:04.279Z,99.99
2017-07-10T03:12:04.168Z,99.99
2017-07-10T03:13:03.828Z,99.99
2017-07-10T03:14:03.868Z,99.99
2017-07-10T03:15:03.832Z,99.99
2017-07-10T03:16:03.831Z,99.99
2017-07-10T03:17:04.164Z,99.99
2017-07-10T03:18:04.200Z,99.99
2017-07-10T03:19:03.849Z,99.99
2017-07-10T03:20:03.839Z,99.99
2017-07-10T03:21:04.207Z,99.99
2017-07-10T03:22:03.841Z,99.99
2017-07-10T03:23:03.837Z,99.99
2017-07-10T03:24:03.826Z,99.99
2017-07-10T03:25:04.175Z,99.99
2017-07-10T03:26:04.161Z,99.99
2017-07-10T03:27:03.806Z,99.99
2017-07-10T03:28:03.804Z,99.99
2017-07-10T03:29:03.814Z,99.99
2017-07-10T03:30:03.838Z,99.99
2017-07-10T03:31:03.830Z,99.99
2017-07-10T03:32:03.846Z,99.99
2017-07-10T03:33:04.184Z,99.99
2017-07-10T03:34:03.846Z,99.99
2017-07-10T03:35:03.839Z,99.99
2017-07-10T03:36:03.826Z,99.99
2017-07-10T03:37:03.835Z,99.99
2017-07-10T03:38:04.136Z,99.99
2017-07-10T03:39:03.796Z,99.99
2017-07-10T03:40:03.775Z,99.99
2017-07-10T03:41:03.936Z,99.99
2017-07-10T03:42:03.783Z,99.99
2017-07-10T03:43:03.851Z,99.99
2017-07-10T03:44:04.143Z,99.99
2017-07-10T03:45:04.213Z,99.99
2017-07-10T03:46:03.832Z,99.99
2017-07-10T03:47:03.807Z,99.99
2017-07-10T03:48:04.120Z,99.99
2017-07-10T03:49:03.840Z,99.99
2017-07-10T03:50:03.815Z,99.99
2017-07-10T03:51:03.839Z,99.99
2017-07-10T03:52:04.172Z,99.99
2017-07-10T03:53:03.787Z,99.99
2017-07-10T03:54:03.794Z,99.99
2017-07-10T03:55:04.110Z,99.99
2017-07-10T03:56:03.835Z,99.99
2017-07-10T03:57:04.146Z,99.99
2017-07-10T03:58:03.803Z,99.99
2017-07-10T03:59:03.826Z,99.99
2017-07-10T04:00:04.164Z,99.99
2017-07-10T04:01:03.861Z,99.99
2017-07-10T04:02:03.787Z,99.99
2017-07-10T04:03:04.131Z,99.99
2017-07-10T04:04:03.782Z,99.99
2017-07-10T04:05:03.755Z,99.99
2017-07-10T04:06:03.858Z,99.99
2017-07-10T04:07:04.161Z,99.99
2017-07-10T04:08:03.792Z,99.99
2017-07-10T04:09:04.111Z,99.99
2017-07-10T04:10:04.093Z,99.99
2017-07-10T04:11:04.146Z,99.99
2017-07-10T04:12:04.118Z,99.99
2017-07-10T04:13:04.105Z,99.99
2017-07-10T04:14:03.737Z,99.99
2017-07-10T04:15:03.805Z,99.99
2017-07-10T04:16:03.756Z,99.99
2017-07-10T04:17:03.799Z,99.99
2017-07-10T04:18:03.752Z,99.99
2017-07-10T04:19:04.114Z,99.99
2017-07-10T04:20:03.780Z,99.99
2017-07-10T04:21:04.178Z,99.99
2017-07-10T04:22:03.810Z,99.99
2017-07-10T04:23:03.872Z,99.99
2017-07-10T04:24:03.805Z,99.99
2017-07-10T04:25:03.760Z,99.99
2017-07-10T04:26:03.822Z,99.99
2017-07-10T04:27:03.800Z,99.99
2017-07-10T04:28:03.791Z,99.99
2017-07-10T04:29:04.135Z,99.99
2017-07-10T04:30:03.746Z,99.99
2017-07-10T04:31:03.758Z,99.99
2017-07-10T04:32:03.739Z,99.99
2017-07-10T04:33:03.770Z,99.99
2017-07-10T04:34:03.762Z,99.99
2017-07-10T04:35:04.060Z,99.99
2017-07-10T04:36:04.069Z,99.99
2017-07-10T04:37:03.765Z,99.99
2017-07-10T04:38:04.096Z,99.99
2017-07-10T04:39:03.783Z,99.99
2017-07-10T04:40:04.096Z,99.99
2017-07-10T04:41:03.772Z,99.99
2017-07-10T04:42:03.780Z,99.99
2017-07-10T04:43:03.751Z,99.99
2017-07-10T04:44:03.717Z,99.99
2017-07-10T04:45:03.779Z,99.99
2017-07-10T04:46:03.817Z,99.99
2017-07-10T04:47:04.111Z,99.99
2017-07-10T04:48:03.747Z,99.99
2017-07-10T04:49:03.738Z,99.99
2017-07-10T04:50:04.093Z,99.99
2017-07-10T04:51:04.113Z,99.99
2017-07-10T04:52:04.151Z,99.99
2017-07-10T04:53:03.791Z,99.99
2017-07-10T04:54:04.055Z,99.99
2017-07-10T04:55:04.074Z,99.99
2017-07-10T04:56:03.797Z,99.99
2017-07-10T04:57:03.764Z,99.99
2017-07-10T04:58:04.078Z,99.99
2017-07-10T04:59:03.734Z,99.99
2017-07-10T05:00:03.736Z,99.99
2017-07-10T05:01:04.083Z,99.99
2017-07-10T05:02:03.732Z,99.99
2017-07-10T05:03:03.748Z,99.99
2017-07-10T05:04:03.718Z,99.99
2017-07-10T05:05:03.835Z,99.99
2017-07-10T05:06:03.693Z,99.99
2017-07-10T05:07:03.727Z,99.99
2017-07-10T05:08:04.061Z,99.99
2017-07-10T05:09:03.769Z,99.99
2017-07-10T05:10:03.696Z,99.99
2017-07-10T05:11:03.738Z,99.99
2017-07-10T05:12:03.711Z,99.99
2017-07-10T05:13:03.705Z,99.99
2017-07-10T05:14:04.029Z,99.99
2017-07-10T05:15:03.732Z,99.99
2017-07-10T05:16:03.703Z,99.99
2017-07-10T05:17:03.726Z,99.99
2017-07-10T05:18:04.061Z,99.99
2017-07-10T05:19:03.727Z,99.99
2017-07-10T05:20:04.023Z,99.99
2017-07-10T05:21:03.720Z,99.99
2017-07-10T05:22:03.701Z,99.99
2017-07-10T05:23:04.059Z,99.99
2017-07-10T05:24:03.735Z,99.99
2017-07-10T05:25:03.748Z,99.99
2017-07-10T05:26:03.787Z,99.99
2017-07-10T05:27:04.064Z,99.99
2017-07-10T05:28:03.718Z,99.99
2017-07-10T05:29:04.098Z,99.99
2017-07-10T05:30:03.790Z,99.99
2017-07-10T05:31:04.044Z,99.99
2017-07-10T05:32:03.712Z,99.99
2017-07-10T05:33:04.115Z,99.99
2017-07-10T05:34:04.016Z,99.99
2017-07-10T05:35:03.695Z,99.99
2017-07-10T05:36:03.757Z,99.99
2017-07-10T05:37:04.027Z,99.99
2017-07-10T05:38:03.717Z,99.99
2017-07-10T05:39:03.686Z,99.99
2017-07-10T05:40:04.244Z,99.99
2017-07-10T05:41:03.764Z,99.99
2017-07-10T05:42:04.055Z,99.99
2017-07-10T05:43:03.741Z,99.99
2017-07-10T05:44:03.738Z,99.99
2017-07-10T05:45:03.716Z,99.99
2017-07-10T05:46:04.054Z,99.99
2017-07-10T05:47:03.759Z,99.99
2017-07-10T05:48:04.034Z,99.99
2017-07-10T05:49:03.704Z,99.99
2017-07-10T05:50:03.988Z,99.99
2017-07-10T05:51:04.030Z,99.99
2017-07-10T05:52:04.088Z,99.99
2017-07-10T05:53:04.015Z,99.99
2017-07-10T05:54:03.665Z,99.99
2017-07-10T05:55:03.670Z,99.99
2017-07-10T05:56:03.797Z,99.99
2017-07-10T05:57:03.711Z,99.99
2017-07-10T05:58:03.686Z,99.99
2017-07-10T05:59:03.737Z,99.99
2017-07-10T06:00:03.670Z,99.99
2017-07-10T06:01:03.995Z,99.99
2017-07-10T06:02:03.684Z,99.99
2017-07-10T06:03:03.645Z,99.99
2017-07-10T06:04:03.984Z,99.99
2017-07-10T06:05:03.628Z,99.99
2017-07-10T06:06:03.701Z,99.99
2017-07-10T06:07:03.649Z,99.99
2017-07-10T06:08:03.706Z,99.99
2017-07-10T06:09:03.644Z,99.99
2017-07-10T06:10:04.129Z,99.99
2017-07-10T06:11:03.664Z,99.99
2017-07-10T06:12:03.971Z,99.99
2017-07-10T06:13:03.738Z,99.99
2017-07-10T06:14:03.729Z,99.99
2017-07-10T06:15:03.879Z,99.99
2017-07-10T06:16:03.657Z,99.99
2017-07-10T06:17:03.696Z,99.99
2017-07-10T06:18:04.017Z,99.99
2017-07-10T06:19:03.634Z,99.99
2017-07-10T06:20:03.962Z,99.99
2017-07-10T06:21:03.629Z,99.99
2017-07-10T06:22:03.597Z,99.99
2017-07-10T06:23:03.997Z,99.99
2017-07-10T06:24:03.913Z,99.99
2017-07-10T06:25:03.935Z,99.99
2017-07-10T06:26:03.636Z,99.99
2017-07-10T06:27:03.565Z,99.99
2017-07-10T06:28:03.619Z,99.99
2017-07-10T06:29:03.594Z,99.99
2017-07-10T06:30:03.972Z,99.99
2017-07-10T06:31:03.948Z,99.99
2017-07-10T06:32:03.920Z,99.99
2017-07-10T06:33:03.938Z,99.99
2017-07-10T06:34:03.676Z,99.99
2017-07-10T06:35:03.898Z,99.99
2017-07-10T06:36:03.610Z,99.99
2017-07-10T06:37:03.575Z,99.99
2017-07-10T06:38:04.014Z,99.99
2017-07-10T06:39:03.538Z,99.99
2017-07-10T06:40:03.567Z,99.99
2017-07-10T06:41:03.575Z,99.99
2017-07-10T06:42:03.958Z,99.99
2017-07-10T06:43:03.891Z,99.99
2017-07-10T06:44:03.906Z,99.99
2017-07-10T06:45:03.582Z,99.99
2017-07-10T06:46:03.893Z,99.99
2017-07-10T06:47:03.866Z,99.99
2017-07-10T06:48:03.598Z,99.99
2017-07-10T06:49:03.896Z,99.99
2017-07-10T06:50:03.699Z,99.99
2017-07-10T06:51:03.533Z,99.99
2017-07-10T06:52:03.577Z,99.99
2017-07-10T06:53:03.546Z,99.99
2017-07-10T06:54:03.519Z,99.99
2017-07-10T06:55:03.580Z,99.99
2017-07-10T06:56:03.518Z,99.99
2017-07-10T06:57:03.532Z,99.99
2017-07-10T06:58:03.878Z,99.99
2017-07-10T06:59:03.514Z,99.99
2017-07-10T07:00:03.829Z,99.99
2017-07-10T07:01:03.555Z,99.99
2017-07-10T07:02:03.511Z,99.99
2017-07-10T07:03:03.563Z,99.99
2017-07-10T07:04:03.513Z,99.99
2017-07-10T07:05:03.509Z,99.99
2017-07-10T07:06:03.487Z,99.99
2017-07-10T07:07:03.831Z,99.99
2017-07-10T07:08:03.699Z,99.99
2017-07-10T07:09:03.511Z,99.99
2017-07-10T07:10:03.553Z,99.99
2017-07-10T07:11:03.549Z,99.99
2017-07-10T07:12:03.881Z,99.99
2017-07-10T07:13:03.497Z,99.99
2017-07-10T07:14:03.504Z,99.99
2017-07-10T07:15:03.881Z,99.99
2017-07-10T07:16:03.532Z,99.99
2017-07-10T07:17:03.859Z,99.99
2017-07-10T07:18:03.501Z,99.99
2017-07-10T07:19:03.508Z,99.99
2017-07-10T07:20:03.532Z,99.99
2017-07-10T07:21:03.861Z,99.99
2017-07-10T07:22:03.496Z,99.99
2017-07-10T07:23:03.519Z,99.99
2017-07-10T07:24:03.513Z,99.99
2017-07-10T07:25:03.552Z,99.99
2017-07-10T07:26:03.503Z,99.99
2017-07-10T07:27:03.843Z,99.99
2017-07-10T07:28:03.839Z,99.99
2017-07-10T07:29:03.858Z,99.99
2017-07-10T07:30:03.553Z,99.99
2017-07-10T07:31:03.501Z,99.99
2017-07-10T07:32:03.507Z,99.99
2017-07-10T07:33:03.543Z,99.99
2017-07-10T07:34:03.493Z,99.99
2017-07-10T07:35:03.836Z,99.99
2017-07-10T07:36:03.503Z,99.99
2017-07-10T07:37:03.449Z,99.99
2017-07-10T07:38:03.837Z,99.99
2017-07-10T07:39:03.499Z,99.99
2017-07-10T07:40:03.518Z,99.99
2017-07-10T07:41:03.514Z,99.99
2017-07-10T07:42:03.813Z,99.99
2017-07-10T07:43:03.578Z,99.99
2017-07-10T07:44:03.865Z,99.99
2017-07-10T07:45:03.498Z,99.99
2017-07-10T07:46:03.903Z,99.6
2017-07-10T07:47:03.486Z,96.61
2017-07-10T07:48:03.475Z,96.17
2017-07-10T07:49:03.828Z,94.96
2017-07-10T07:50:03.816Z,89.26
2017-07-10T07:51:03.843Z,83.55
2017-07-10T07:52:03.823Z,81.65
2017-07-10T07:53:03.838Z,78.15
2017-07-10T07:54:03.834Z,74.02
2017-07-10T07:55:03.838Z,70.09
2017-07-10T07:56:03.852Z,71.19
2017-07-10T07:57:03.846Z,70.93
2017-07-10T07:58:03.908Z,63.39
2017-07-10T07:59:03.870Z,66.24
2017-07-10T08:00:03.522Z,67.21
2017-07-10T08:01:03.520Z,64.26
2017-07-10T08:02:03.511Z,60.67
2017-07-10T08:03:03.849Z,59.23
2017-07-10T08:04:03.560Z,58.29
2017-07-10T08:05:03.515Z,56.47
2017-07-10T08:06:03.541Z,54.26
2017-07-10T08:07:03.517Z,54.97
2017-07-10T08:08:03.890Z,55.19
2017-07-10T08:09:03.623Z,56.16
2017-07-10T08:10:03.559Z,54.9
2017-07-10T08:11:03.590Z,54.99
2017-07-10T08:12:03.950Z,54.97
2017-07-10T08:13:03.862Z,55.94
2017-07-10T08:14:03.966Z,54.38
2017-07-10T08:15:03.546Z,54.77
2017-07-10T08:16:03.613Z,53.73
2017-07-10T08:17:03.586Z,55.09
2017-07-10T08:18:03.667Z,54.8
2017-07-10T08:19:03.579Z,51.68
2017-07-10T08:20:03.590Z,51.7
2017-07-10T08:21:03.615Z,53.73
2017-07-10T08:22:03.931Z,53.44
2017-07-10T08:23:03.911Z,54.09
2017-07-10T08:24:03.931Z,54.97
2017-07-10T08:25:03.685Z,54.36
2017-07-10T08:26:03.648Z,54.62
2017-07-10T08:27:03.946Z,57.51
2017-07-10T08:28:03.990Z,60.7
2017-07-10T08:29:04.029Z,63.78
2017-07-10T08:30:04.049Z,62.58
2017-07-10T08:31:03.641Z,63.65
2017-07-10T08:32:03.660Z,59.92
2017-07-10T08:33:03.736Z,59.8
2017-07-10T08:34:04.024Z,61.13
2017-07-10T08:35:03.686Z,64.88
2017-07-10T08:36:03.701Z,63.91
2017-07-10T08:37:04.024Z,64.98
2017-07-10T08:38:03.675Z,65.24
2017-07-10T08:39:03.800Z,68.82
2017-07-10T08:40:03.691Z,72.02
2017-07-10T08:41:04.089Z,70.18
2017-07-10T08:42:03.749Z,69.12
2017-07-10T08:43:03.764Z,69.99
2017-07-10T08:44:03.689Z,70.96
2017-07-10T08:45:03.874Z,64.85
2017-07-10T08:46:04.134Z,64.95
2017-07-10T08:47:04.077Z,62.43
2017-07-10T08:48:04.103Z,63.78
2017-07-10T08:49:04.105Z,64.27
2017-07-10T08:50:03.808Z,64.04
2017-07-10T08:51:04.121Z,66.37
2017-07-10T08:52:03.727Z,67.14
2017-07-10T08:53:03.810Z,68.21
2017-07-10T08:54:03.888Z,64.24
2017-07-10T08:55:03.784Z,66.37
2017-07-10T08:56:04.125Z,67.24
2017-07-10T08:57:03.857Z,67.11
2017-07-10T08:58:03.804Z,67.44
2017-07-10T08:59:03.846Z,68.95
2017-07-10T09:00:03.838Z,71.41
2017-07-10T09:01:03.790Z,70.73
2017-07-10T09:02:04.132Z,70.05
2017-07-10T09:03:03.821Z,66.75
2017-07-10T09:04:03.853Z,67.08
2017-07-10T09:05:04.235Z,67.14
2017-07-10T09:06:03.857Z,67.76
2017-07-10T09:07:03.775Z,67.57
2017-07-10T09:08:03.832Z,67.57
2017-07-10T09:09:04.169Z,65.56
2017-07-10T09:10:04.143Z,68.47
2017-07-10T09:11:03.844Z,69.73
2017-07-10T09:12:04.146Z,66.53
2017-07-10T09:13:04.201Z,66.37
2017-07-10T09:14:04.150Z,67.05
2017-07-10T09:15:03.927Z,65.5
2017-07-10T09:16:04.265Z,66.53
2017-07-10T09:17:03.847Z,67.21
2017-07-10T09:18:03.839Z,67.4
2017-07-10T09:19:03.860Z,68.05
2017-07-10T09:20:03.866Z,68.34
2017-07-10T09:21:03.879Z,69.5
2017-07-10T09:22:03.883Z,68.92
2017-07-10T09:23:03.905Z,68.54
2017-07-10T09:24:03.875Z,68.21
2017-07-10T09:25:04.226Z,69.34
2017-07-10T09:26:04.434Z,67.3
2017-07-10T09:27:04.211Z,69.63
2017-07-10T09:28:04.227Z,72.24
2017-07-10T09:29:03.879Z,72.44
2017-07-10T09:30:03.958Z,72.24
2017-07-10T09:31:03.937Z,69.82
2017-07-10T09:32:03.899Z,70.7
2017-07-10T09:33:03.896Z,72.15
2017-07-10T09:34:04.275Z,71.28
2017-07-10T09:35:03.913Z,70.5
2017-07-10T09:36:03.944Z,70.6
2017-07-10T09:37:04.249Z,70.6
2017-07-10T09:38:03.922Z,69.43
2017-07-10T09:39:04.007Z,70.01
2017-07-10T09:40:04.350Z,72.53
2017-07-10T09:41:04.302Z,72.83
2017-07-10T09:42:03.993Z,71.28
2017-07-10T09:43:03.962Z,73.21
2017-07-10T09:44:03.944Z,72.83
2017-07-10T09:45:03.971Z,70.01
2017-07-10T09:46:04.332Z,68.47
2017-07-10T09:47:04.298Z,68.56
2017-07-10T09:48:03.984Z,68.56
2017-07-10T09:49:03.975Z,70.01
2017-07-10T09:50:03.991Z,71.28
2017-07-10T09:51:03.971Z,71.22
2017-07-10T09:52:03.963Z,69.85
2017-07-10T09:53:04.293Z,69.08
2017-07-10T09:54:03.996Z,71.31
2017-07-10T09:55:04.317Z,70.86
2017-07-10T09:56:04.023Z,68.82
2017-07-10T09:57:03.993Z,69.21
2017-07-10T09:58:04.023Z,69.21
2017-07-10T09:59:04.092Z,69.89
2017-07-10T10:00:04.384Z,65.63
2017-07-10T10:01:04.398Z,66.79
2017-07-10T10:02:04.366Z,69.18
2017-07-10T10:03:04.341Z,68.02
2017-07-10T10:04:04.036Z,66.72
2017-07-10T10:05:04.038Z,66.24
2017-07-10T10:06:04.079Z,66.14
2017-07-10T10:07:04.065Z,67.6
2017-07-10T10:08:04.380Z,67.3
2017-07-10T10:09:04.415Z,68.47
2017-07-10T10:10:04.045Z,66.98
2017-07-10T10:11:04.074Z,69.15
2017-07-10T10:12:04.072Z,67.08
2017-07-10T10:13:04.068Z,67.85
2017-07-10T10:14:04.402Z,67.37
2017-07-10T10:15:04.071Z,67.56
2017-07-10T10:16:04.118Z,70.66
2017-07-10T10:17:04.114Z,68.82
2017-07-10T10:18:04.188Z,68.82
2017-07-10T10:19:04.085Z,69.17
2017-07-10T10:20:04.503Z,70.92
2017-07-10T10:21:04.397Z,69.4
2017-07-10T10:22:04.545Z,69.4
2017-07-10T10:23:04.136Z,68.05
2017-07-10T10:24:04.156Z,67.85
2017-07-10T10:25:04.121Z,68.15
2017-07-10T10:26:04.431Z,66.98
2017-07-10T10:27:04.130Z,67.46
2017-07-10T10:28:04.473Z,69.11
2017-07-10T10:29:04.468Z,68.82
2017-07-10T10:30:04.102Z,66.88
2017-07-10T10:31:04.155Z,66.2
2017-07-10T10:32:04.163Z,66.5
2017-07-10T10:33:04.141Z,67.66
2017-07-10T10:34:04.212Z,69.11
2017-07-10T10:35:04.534Z,66.5
2017-07-10T10:36:04.156Z,67.18
2017-07-10T10:37:04.209Z,67.21
2017-07-10T10:38:04.474Z,68.27
2017-07-10T10:39:04.232Z,69.47
2017-07-10T10:40:04.176Z,66.85
2017-07-10T10:41:04.218Z,65.01
2017-07-10T10:42:04.175Z,66.47
2017-07-10T10:43:04.577Z,64.62
2017-07-10T10:44:04.508Z,66.05
2017-07-10T10:45:04.203Z,68.56
2017-07-10T10:46:04.497Z,69.34
2017-07-10T10:47:04.248Z,68.27
2017-07-10T10:48:04.241Z,67.4
2017-07-10T10:49:04.198Z,67.98
2017-07-10T10:50:04.559Z,69.34
2017-07-10T10:51:04.574Z,69.53
2017-07-10T10:52:04.529Z,69.05
2017-07-10T10:53:04.279Z,68.12
2017-07-10T10:54:04.270Z,67.44
2017-07-10T10:55:04.577Z,67.53
2017-07-10T10:56:04.261Z,64.34
2017-07-10T10:57:04.627Z,66.34
2017-07-10T10:58:04.562Z,66.72
2017-07-10T10:59:04.608Z,65.37
2017-07-10T11:00:04.569Z,66.63
2017-07-10T11:01:04.602Z,68.43
2017-07-10T11:02:04.256Z,68.63
2017-07-10T11:03:04.300Z,67.56
2017-07-10T11:04:04.667Z,66.2
2017-07-10T11:05:04.671Z,66.92
2017-07-10T11:06:04.263Z,67.4
2017-07-10T11:07:04.307Z,66.24
2017-07-10T11:08:04.597Z,65.47
2017-07-10T11:09:04.270Z,66.53
2017-07-10T11:10:04.300Z,62.75
2017-07-10T11:11:04.333Z,61.43
2017-07-10T11:12:04.287Z,64.01
2017-07-10T11:13:04.697Z,64.59
2017-07-10T11:14:04.622Z,64.4
2017-07-10T11:15:04.327Z,64.98
2017-07-10T11:16:04.327Z,64.79
2017-07-10T11:17:04.321Z,62.98
2017-07-10T11:18:04.324Z,62.88
2017-07-10T11:19:04.647Z,62.98
2017-07-10T11:20:04.680Z,61.75
2017-07-10T11:21:04.301Z,60.88
2017-07-10T11:22:04.344Z,60.78
2017-07-10T11:23:04.710Z,59.81
2017-07-10T11:24:04.405Z,61.62
2017-07-10T11:25:04.334Z,61.24
2017-07-10T11:26:04.743Z,63.75
2017-07-10T11:27:04.327Z,58.62
2017-07-10T11:28:04.440Z,57.75
2017-07-10T11:29:04.330Z,60.85
2017-07-10T11:30:04.370Z,58.52
2017-07-10T11:31:04.333Z,60.33
2017-07-10T11:32:04.663Z,60.52
2017-07-10T11:33:04.742Z,64.4
2017-07-10T11:34:04.357Z,59.46
2017-07-10T11:35:04.369Z,61.11
2017-07-10T11:36:04.382Z,60.04
2017-07-10T11:37:04.410Z,60.91
2017-07-10T11:38:04.382Z,61.98
2017-07-10T11:39:04.614Z,60.33
2017-07-10T11:40:04.404Z,59.94
2017-07-10T11:41:04.758Z,58.78
2017-07-10T11:42:04.410Z,59.84
2017-07-10T11:43:04.715Z,58.39
2017-07-10T11:44:04.449Z,60.24
2017-07-10T11:45:04.766Z,59.75
2017-07-10T11:46:04.799Z,62.66
2017-07-10T11:47:04.431Z,61.98
2017-07-10T11:48:04.450Z,60.52
2017-07-10T11:49:04.457Z,61.11
2017-07-10T11:50:04.422Z,61.21
2017-07-10T11:51:04.434Z,61.59
2017-07-10T11:52:04.472Z,62.17
2017-07-10T11:53:04.516Z,63.34
2017-07-10T11:54:04.803Z,60.82
2017-07-10T11:55:04.438Z,61.88
2017-07-10T11:56:04.501Z,61.88
2017-07-10T11:57:04.503Z,61.79
2017-07-10T11:58:04.804Z,62.66
2017-07-10T11:59:04.443Z,61.88
2017-07-10T12:00:04.841Z,63.07
2017-07-10T12:01:04.518Z,63.46
2017-07-10T12:02:04.826Z,60.17
2017-07-10T12:03:04.808Z,62.79
2017-07-10T12:04:04.780Z,62.98
2017-07-10T12:05:04.872Z,63.46
2017-07-10T12:06:04.485Z,61.26
2017-07-10T12:07:04.466Z,60.97
2017-07-10T12:08:04.837Z,61.36
2017-07-10T12:09:04.550Z,62.91
2017-07-10T12:10:04.819Z,58.94
2017-07-10T12:11:04.510Z,60.3
2017-07-10T12:12:04.478Z,60.49
2017-07-10T12:13:04.509Z,62.82
2017-07-10T12:14:04.553Z,62.91
2017-07-10T12:15:04.600Z,61.75
2017-07-10T12:16:04.510Z,60.3
2017-07-10T12:17:04.558Z,61.17
2017-07-10T12:18:04.573Z,61.55
2017-07-10T12:19:04.897Z,62.04
2017-07-10T12:20:04.556Z,62.72
2017-07-10T12:21:04.533Z,62.04
2017-07-10T12:22:04.573Z,61.65
2017-07-10T12:23:04.551Z,59.03
2017-07-10T12:24:04.560Z,58.84
2017-07-10T12:25:04.888Z,59.71
2017-07-10T12:26:04.543Z,59.03
2017-07-10T12:27:04.576Z,59.88
2017-07-10T12:28:04.879Z,60.3
2017-07-10T12:29:04.605Z,59.61
2017-07-10T12:30:04.584Z,58.84
2017-07-10T12:31:04.598Z,57.68
2017-07-10T12:32:04.598Z,57.58
2017-07-10T12:33:04.617Z,57.29
2017-07-10T12:34:04.563Z,58.65
2017-07-10T12:35:04.627Z,59.03
2017-07-10T12:36:04.575Z,60.68
2017-07-10T12:37:04.583Z,59.71
2017-07-10T12:38:04.599Z,57.58
2017-07-10T12:39:04.621Z,57.22
2017-07-10T12:40:04.637Z,57.32
2017-07-10T12:41:04.639Z,57.51
2017-07-10T12:42:04.593Z,55.5
2017-07-10T12:43:04.622Z,54.82
2017-07-10T12:44:04.610Z,57.06
2017-07-10T12:45:04.801Z,56.76
2017-07-10T12:46:04.683Z,53.97
2017-07-10T12:47:04.651Z,54.07
2017-07-10T12:48:04.651Z,53.88
2017-07-10T12:49:04.652Z,51.75
2017-07-10T12:50:05.026Z,53.85
2017-07-10T12:51:04.711Z,53.27
2017-07-10T12:52:04.757Z,55.69
2017-07-10T12:53:04.710Z,54.92